sensor_id;sensor_type;location;lat;lon;timestamp;temperature;humidity
39675;DHT22;27790;50.840;4.386;2024-03-22T00:00:17;15.00;99.90
39675;DHT22;27790;50.840;4.386;2024-03-22T00:02:43;15.10;99.90
39675;DHT22;27790;50.840;4.386;2024-03-22T00:05:08;15.00;99.90
39675;DHT22;27790;50.840;4.386;2024-03-22T00:07:34;15.00;99.90
39675;DHT22;27790;50.840;4.386;2024-03-22T00:09:59;15.00;99.90
39675;DHT22;27790;50.840;4.386;2024-03-22T00:12:25;14.90;99.90
39675;DHT22;27790;50.840;4.386;2024-03-22T00:14:51;15.00;99.90
39675;DHT22;27790;50.840;4.386;2024-03-22T00:17:20;15.00;99.90
39675;DHT22;27790;50.840;4.386;2024-03-22T00:19:45;15.00;99.90
39675;DHT22;27790;50.840;4.386;2024-03-22T00:22:11;15.00;99.90
39675;DHT22;27790;50.840;4.386;2024-03-22T00:24:36;15.00;99.90
39675;DHT22;27790;50.840;4.386;2024-03-22T00:27:02;14.90;99.90
39675;DHT22;27790;50.840;4.386;2024-03-22T00:29:27;14.90;99.90
39675;DHT22;27790;50.840;4.386;2024-03-22T00:31:53;14.90;99.90
39675;DHT22;27790;50.840;4.386;2024-03-22T00:34:18;14.80;99.90
39675;DHT22;27790;50.840;4.386;2024-03-22T00:36:45;14.90;99.90
39675;DHT22;27790;50.840;4.386;2024-03-22T00:39:11;14.90;99.90
39675;DHT22;27790;50.840;4.386;2024-03-22T00:41:38;14.90;99.90
39675;DHT22;27790;50.840;4.386;2024-03-22T00:44:03;14.90;99.90
39675;DHT22;27790;50.840;4.386;2024-03-22T00:46:29;14.90;99.90
39675;DHT22;27790;50.840;4.386;2024-03-22T00:48:54;14.90;99.90
39675;DHT22;27790;50.840;4.386;2024-03-22T00:51:20;14.90;99.90
39675;DHT22;27790;50.840;4.386;2024-03-22T00:53:45;14.90;99.90
39675;DHT22;27790;50.840;4.386;2024-03-22T00:56:11;14.90;99.90
39675;DHT22;27790;50.840;4.386;2024-03-22T00:58:36;14.80;99.90
39675;DHT22;27790;50.840;4.386;2024-03-22T01:01:02;14.90;99.90
39675;DHT22;27790;50.840;4.386;2024-03-22T01:03:27;14.90;99.90
39675;DHT22;27790;50.840;4.386;2024-03-22T01:05:53;14.90;99.90
39675;DHT22;27790;50.840;4.386;2024-03-22T01:08:19;14.80;99.90
39675;DHT22;27790;50.840;4.386;2024-03-22T01:10:45;14.70;99.90
39675;DHT22;27790;50.840;4.386;2024-03-22T01:13:10;14.60;99.90
39675;DHT22;27790;50.840;4.386;2024-03-22T01:15:36;14.50;99.90
39675;DHT22;27790;50.840;4.386;2024-03-22T01:18:01;14.40;99.90
39675;DHT22;27790;50.840;4.386;2024-03-22T01:20:27;14.20;99.90
39675;DHT22;27790;50.840;4.386;2024-03-22T01:22:52;14.20;99.90
39675;DHT22;27790;50.840;4.386;2024-03-22T01:25:18;14.20;99.90
39675;DHT22;27790;50.840;4.386;2024-03-22T01:27:43;14.20;99.90
39675;DHT22;27790;50.840;4.386;2024-03-22T01:30:09;14.20;99.90
39675;DHT22;27790;50.840;4.386;2024-03-22T01:32:36;14.10;99.90
39675;DHT22;27790;50.840;4.386;2024-03-22T01:35:01;14.10;99.90
39675;DHT22;27790;50.840;4.386;2024-03-22T01:37:27;14.00;99.90
39675;DHT22;27790;50.840;4.386;2024-03-22T01:39:53;14.00;99.90
39675;DHT22;27790;50.840;4.386;2024-03-22T01:42:18;14.00;99.90
39675;DHT22;27790;50.840;4.386;2024-03-22T01:44:44;13.90;99.90
39675;DHT22;27790;50.840;4.386;2024-03-22T01:47:10;13.90;99.90
39675;DHT22;27790;50.840;4.386;2024-03-22T01:49:35;13.90;99.90
39675;DHT22;27790;50.840;4.386;2024-03-22T01:52:01;13.90;99.90
39675;DHT22;27790;50.840;4.386;2024-03-22T01:54:27;13.80;99.90
39675;DHT22;27790;50.840;4.386;2024-03-22T01:56:52;13.80;99.90
39675;DHT22;27790;50.840;4.386;2024-03-22T01:59:18;13.90;99.90
39675;DHT22;27790;50.840;4.386;2024-03-22T02:01:44;13.80;99.90
39675;DHT22;27790;50.840;4.386;2024-03-22T02:04:10;13.80;99.90
39675;DHT22;27790;50.840;4.386;2024-03-22T02:06:35;13.70;99.90
39675;DHT22;27790;50.840;4.386;2024-03-22T02:09:01;13.70;99.90
39675;DHT22;27790;50.840;4.386;2024-03-22T02:11:29;13.70;99.90
39675;DHT22;27790;50.840;4.386;2024-03-22T02:13:55;13.60;99.90
39675;DHT22;27790;50.840;4.386;2024-03-22T02:16:21;13.50;99.90
39675;DHT22;27790;50.840;4.386;2024-03-22T02:18:46;13.50;99.90
39675;DHT22;27790;50.840;4.386;2024-03-22T02:21:12;13.60;99.90
39675;DHT22;27790;50.840;4.386;2024-03-22T02:23:39;13.50;99.90
39675;DHT22;27790;50.840;4.386;2024-03-22T02:26:05;13.50;99.90
39675;DHT22;27790;50.840;4.386;2024-03-22T02:28:31;13.60;99.90
39675;DHT22;27790;50.840;4.386;2024-03-22T02:30:58;13.60;99.90
39675;DHT22;27790;50.840;4.386;2024-03-22T02:33:23;13.70;99.90
39675;DHT22;27790;50.840;4.386;2024-03-22T02:35:50;13.70;99.90
39675;DHT22;27790;50.840;4.386;2024-03-22T02:38:16;13.70;99.90
39675;DHT22;27790;50.840;4.386;2024-03-22T02:40:45;13.80;99.90
39675;DHT22;27790;50.840;4.386;2024-03-22T02:43:11;13.90;99.90
39675;DHT22;27790;50.840;4.386;2024-03-22T02:45:37;13.90;99.90
39675;DHT22;27790;50.840;4.386;2024-03-22T02:48:02;13.90;99.90
39675;DHT22;27790;50.840;4.386;2024-03-22T02:50:33;13.90;99.90
39675;DHT22;27790;50.840;4.386;2024-03-22T02:52:58;13.90;99.90
39675;DHT22;27790;50.840;4.386;2024-03-22T02:55:24;13.90;99.90
39675;DHT22;27790;50.840;4.386;2024-03-22T02:57:49;13.90;99.90
39675;DHT22;27790;50.840;4.386;2024-03-22T03:00:15;13.90;99.90
39675;DHT22;27790;50.840;4.386;2024-03-22T03:02:41;13.80;99.90
39675;DHT22;27790;50.840;4.386;2024-03-22T03:05:07;13.80;99.90
39675;DHT22;27790;50.840;4.386;2024-03-22T03:07:33;13.80;99.90
39675;DHT22;27790;50.840;4.386;2024-03-22T03:09:59;13.70;99.90
39675;DHT22;27790;50.840;4.386;2024-03-22T03:12:25;13.70;99.90
39675;DHT22;27790;50.840;4.386;2024-03-22T03:14:50;13.70;99.90
39675;DHT22;27790;50.840;4.386;2024-03-22T03:17:16;13.80;99.90
39675;DHT22;27790;50.840;4.386;2024-03-22T03:19:41;13.80;99.90
39675;DHT22;27790;50.840;4.386;2024-03-22T03:22:07;13.80;99.90
39675;DHT22;27790;50.840;4.386;2024-03-22T03:24:32;13.80;99.90
39675;DHT22;27790;50.840;4.386;2024-03-22T03:26:58;13.70;99.90
39675;DHT22;27790;50.840;4.386;2024-03-22T03:29:23;13.70;99.90
39675;DHT22;27790;50.840;4.386;2024-03-22T03:31:49;13.90;99.90
39675;DHT22;27790;50.840;4.386;2024-03-22T03:34:15;13.80;99.90
39675;DHT22;27790;50.840;4.386;2024-03-22T03:36:41;13.90;99.90
39675;DHT22;27790;50.840;4.386;2024-03-22T03:39:06;13.90;99.90
39675;DHT22;27790;50.840;4.386;2024-03-22T03:41:32;13.90;99.90
39675;DHT22;27790;50.840;4.386;2024-03-22T03:43:57;13.80;99.90
39675;DHT22;27790;50.840;4.386;2024-03-22T03:46:23;13.80;99.90
39675;DHT22;27790;50.840;4.386;2024-03-22T03:48:49;13.80;99.90
39675;DHT22;27790;50.840;4.386;2024-03-22T03:51:14;13.80;99.90
39675;DHT22;27790;50.840;4.386;2024-03-22T03:53:40;13.80;99.90
39675;DHT22;27790;50.840;4.386;2024-03-22T03:56:05;13.70;99.90
39675;DHT22;27790;50.840;4.386;2024-03-22T03:58:31;13.70;99.90
39675;DHT22;27790;50.840;4.386;2024-03-22T04:00:56;13.60;99.90
39675;DHT22;27790;50.840;4.386;2024-03-22T04:03:23;13.60;99.90
39675;DHT22;27790;50.840;4.386;2024-03-22T04:05:56;13.60;99.90
39675;DHT22;27790;50.840;4.386;2024-03-22T04:08:22;13.50;99.90
39675;DHT22;27790;50.840;4.386;2024-03-22T04:10:52;13.50;99.90
39675;DHT22;27790;50.840;4.386;2024-03-22T04:13:17;13.60;99.90
39675;DHT22;27790;50.840;4.386;2024-03-22T04:15:43;13.40;99.90
39675;DHT22;27790;50.840;4.386;2024-03-22T04:18:08;13.60;99.90
39675;DHT22;27790;50.840;4.386;2024-03-22T04:20:34;13.60;99.90
39675;DHT22;27790;50.840;4.386;2024-03-22T04:22:59;13.60;99.90
39675;DHT22;27790;50.840;4.386;2024-03-22T04:25:25;13.40;99.90
39675;DHT22;27790;50.840;4.386;2024-03-22T04:27:51;13.40;99.90
39675;DHT22;27790;50.840;4.386;2024-03-22T04:30:16;13.50;99.90
39675;DHT22;27790;50.840;4.386;2024-03-22T04:32:42;13.40;99.90
39675;DHT22;27790;50.840;4.386;2024-03-22T04:35:07;13.30;99.90
39675;DHT22;27790;50.840;4.386;2024-03-22T04:37:33;13.40;99.90
39675;DHT22;27790;50.840;4.386;2024-03-22T04:39:59;13.30;99.90
39675;DHT22;27790;50.840;4.386;2024-03-22T04:42:24;13.40;99.90
39675;DHT22;27790;50.840;4.386;2024-03-22T04:44:50;13.40;99.90
39675;DHT22;27790;50.840;4.386;2024-03-22T04:47:15;13.40;99.90
39675;DHT22;27790;50.840;4.386;2024-03-22T04:49:41;13.50;99.90
39675;DHT22;27790;50.840;4.386;2024-03-22T04:52:06;13.50;99.90
39675;DHT22;27790;50.840;4.386;2024-03-22T04:54:32;13.50;99.90
39675;DHT22;27790;50.840;4.386;2024-03-22T04:56:57;13.50;99.90
39675;DHT22;27790;50.840;4.386;2024-03-22T04:59:23;13.40;99.90
39675;DHT22;27790;50.840;4.386;2024-03-22T05:01:48;13.50;99.90
39675;DHT22;27790;50.840;4.386;2024-03-22T05:04:14;13.40;99.90
39675;DHT22;27790;50.840;4.386;2024-03-22T05:06:39;13.50;99.90
39675;DHT22;27790;50.840;4.386;2024-03-22T05:09:05;13.50;99.90
39675;DHT22;27790;50.840;4.386;2024-03-22T05:11:30;13.40;99.90
39675;DHT22;27790;50.840;4.386;2024-03-22T05:13:57;13.40;99.90
39675;DHT22;27790;50.840;4.386;2024-03-22T05:16:22;13.40;99.90
39675;DHT22;27790;50.840;4.386;2024-03-22T05:18:49;13.40;99.90
39675;DHT22;27790;50.840;4.386;2024-03-22T05:21:14;13.40;99.90
39675;DHT22;27790;50.840;4.386;2024-03-22T05:23:40;13.40;99.90
39675;DHT22;27790;50.840;4.386;2024-03-22T05:26:05;13.40;99.90
39675;DHT22;27790;50.840;4.386;2024-03-22T05:28:31;13.40;99.90
39675;DHT22;27790;50.840;4.386;2024-03-22T05:30:56;13.50;99.90
39675;DHT22;27790;50.840;4.386;2024-03-22T05:33:22;13.30;99.90
39675;DHT22;27790;50.840;4.386;2024-03-22T05:35:47;13.20;99.90
39675;DHT22;27790;50.840;4.386;2024-03-22T05:38:13;13.20;99.90
39675;DHT22;27790;50.840;4.386;2024-03-22T05:40:38;13.20;99.90
39675;DHT22;27790;50.840;4.386;2024-03-22T05:43:04;13.20;99.90
39675;DHT22;27790;50.840;4.386;2024-03-22T05:45:30;13.10;99.90
39675;DHT22;27790;50.840;4.386;2024-03-22T05:47:55;13.10;99.90
39675;DHT22;27790;50.840;4.386;2024-03-22T05:50:21;13.10;99.90
39675;DHT22;27790;50.840;4.386;2024-03-22T05:52:47;13.10;99.90
39675;DHT22;27790;50.840;4.386;2024-03-22T05:55:12;13.10;99.90
39675;DHT22;27790;50.840;4.386;2024-03-22T05:57:38;13.20;99.90
39675;DHT22;27790;50.840;4.386;2024-03-22T06:00:05;13.10;99.90
39675;DHT22;27790;50.840;4.386;2024-03-22T06:02:32;13.20;99.90
39675;DHT22;27790;50.840;4.386;2024-03-22T06:04:58;13.20;99.90
39675;DHT22;27790;50.840;4.386;2024-03-22T06:07:23;13.10;99.90
39675;DHT22;27790;50.840;4.386;2024-03-22T06:09:49;13.00;99.90
39675;DHT22;27790;50.840;4.386;2024-03-22T06:12:15;13.00;99.90
39675;DHT22;27790;50.840;4.386;2024-03-22T06:14:41;12.90;99.90
39675;DHT22;27790;50.840;4.386;2024-03-22T06:17:08;12.80;99.90
39675;DHT22;27790;50.840;4.386;2024-03-22T06:19:34;12.90;99.90
39675;DHT22;27790;50.840;4.386;2024-03-22T06:22:00;12.90;99.90
39675;DHT22;27790;50.840;4.386;2024-03-22T06:24:26;12.90;99.90
39675;DHT22;27790;50.840;4.386;2024-03-22T06:26:52;12.90;99.90
39675;DHT22;27790;50.840;4.386;2024-03-22T06:29:17;12.90;99.90
39675;DHT22;27790;50.840;4.386;2024-03-22T06:31:43;13.00;99.90
39675;DHT22;27790;50.840;4.386;2024-03-22T06:34:09;13.00;99.90
39675;DHT22;27790;50.840;4.386;2024-03-22T06:36:34;12.90;99.90
39675;DHT22;27790;50.840;4.386;2024-03-22T06:39:00;12.80;99.90
39675;DHT22;27790;50.840;4.386;2024-03-22T06:41:26;12.80;99.90
39675;DHT22;27790;50.840;4.386;2024-03-22T06:43:51;12.80;99.90
39675;DHT22;27790;50.840;4.386;2024-03-22T06:46:17;12.90;99.90
39675;DHT22;27790;50.840;4.386;2024-03-22T06:48:43;12.90;99.90
39675;DHT22;27790;50.840;4.386;2024-03-22T06:51:08;13.00;99.90
39675;DHT22;27790;50.840;4.386;2024-03-22T06:53:34;13.00;99.90
39675;DHT22;27790;50.840;4.386;2024-03-22T06:55:59;13.10;99.90
39675;DHT22;27790;50.840;4.386;2024-03-22T06:58:25;13.10;99.90
39675;DHT22;27790;50.840;4.386;2024-03-22T07:00:51;13.00;99.90
39675;DHT22;27790;50.840;4.386;2024-03-22T07:03:16;12.80;99.90
39675;DHT22;27790;50.840;4.386;2024-03-22T07:05:43;12.80;99.90
39675;DHT22;27790;50.840;4.386;2024-03-22T07:08:08;12.90;99.90
39675;DHT22;27790;50.840;4.386;2024-03-22T07:10:34;12.90;99.90
39675;DHT22;27790;50.840;4.386;2024-03-22T07:13:00;12.80;99.90
39675;DHT22;27790;50.840;4.386;2024-03-22T07:15:26;12.70;99.90
39675;DHT22;27790;50.840;4.386;2024-03-22T07:17:52;12.70;99.90
39675;DHT22;27790;50.840;4.386;2024-03-22T07:20:17;12.80;99.90
39675;DHT22;27790;50.840;4.386;2024-03-22T07:22:44;12.90;99.90
39675;DHT22;27790;50.840;4.386;2024-03-22T07:25:09;13.00;99.90
39675;DHT22;27790;50.840;4.386;2024-03-22T07:27:36;13.00;99.90
39675;DHT22;27790;50.840;4.386;2024-03-22T07:30:03;13.20;99.90
39675;DHT22;27790;50.840;4.386;2024-03-22T07:32:29;13.10;99.90
39675;DHT22;27790;50.840;4.386;2024-03-22T07:34:55;13.10;99.90
39675;DHT22;27790;50.840;4.386;2024-03-22T07:37:21;13.00;99.90
39675;DHT22;27790;50.840;4.386;2024-03-22T07:39:46;13.10;99.90
39675;DHT22;27790;50.840;4.386;2024-03-22T07:42:12;13.10;99.90
39675;DHT22;27790;50.840;4.386;2024-03-22T07:44:37;13.10;99.90
39675;DHT22;27790;50.840;4.386;2024-03-22T07:47:03;13.20;99.90
39675;DHT22;27790;50.840;4.386;2024-03-22T07:49:29;13.30;99.90
39675;DHT22;27790;50.840;4.386;2024-03-22T07:51:54;13.20;99.90
39675;DHT22;27790;50.840;4.386;2024-03-22T07:54:20;13.10;99.90
39675;DHT22;27790;50.840;4.386;2024-03-22T07:56:46;13.20;99.90
39675;DHT22;27790;50.840;4.386;2024-03-22T08:01:41;13.30;99.90
39675;DHT22;27790;50.840;4.386;2024-03-22T08:04:06;13.20;99.90
39675;DHT22;27790;50.840;4.386;2024-03-22T08:06:32;13.20;99.90
39675;DHT22;27790;50.840;4.386;2024-03-22T08:08:57;13.20;99.90
39675;DHT22;27790;50.840;4.386;2024-03-22T08:11:23;13.30;99.90
39675;DHT22;27790;50.840;4.386;2024-03-22T08:13:48;13.30;99.90
39675;DHT22;27790;50.840;4.386;2024-03-22T08:16:14;13.20;99.90
39675;DHT22;27790;50.840;4.386;2024-03-22T08:18:40;13.30;99.90
39675;DHT22;27790;50.840;4.386;2024-03-22T08:21:05;13.40;99.90
39675;DHT22;27790;50.840;4.386;2024-03-22T08:23:31;13.40;99.90
39675;DHT22;27790;50.840;4.386;2024-03-22T08:25:57;13.40;99.90
39675;DHT22;27790;50.840;4.386;2024-03-22T08:28:23;13.30;99.90
39675;DHT22;27790;50.840;4.386;2024-03-22T08:30:49;13.30;99.90
39675;DHT22;27790;50.840;4.386;2024-03-22T08:33:14;13.30;99.90
39675;DHT22;27790;50.840;4.386;2024-03-22T08:35:40;13.40;99.90
39675;DHT22;27790;50.840;4.386;2024-03-22T08:38:05;13.30;99.90
39675;DHT22;27790;50.840;4.386;2024-03-22T08:40:37;13.30;99.90
39675;DHT22;27790;50.840;4.386;2024-03-22T08:43:03;13.40;99.90
39675;DHT22;27790;50.840;4.386;2024-03-22T08:45:29;13.50;99.90
39675;DHT22;27790;50.840;4.386;2024-03-22T08:47:54;13.40;99.90
39675;DHT22;27790;50.840;4.386;2024-03-22T08:50:20;13.50;99.90
39675;DHT22;27790;50.840;4.386;2024-03-22T08:52:45;13.70;99.90
39675;DHT22;27790;50.840;4.386;2024-03-22T08:55:11;13.70;99.90
39675;DHT22;27790;50.840;4.386;2024-03-22T08:57:38;13.70;99.90
39675;DHT22;27790;50.840;4.386;2024-03-22T09:00:04;13.80;99.90
39675;DHT22;27790;50.840;4.386;2024-03-22T09:02:30;13.70;99.90
39675;DHT22;27790;50.840;4.386;2024-03-22T09:04:55;13.80;99.90
39675;DHT22;27790;50.840;4.386;2024-03-22T09:07:21;13.80;99.90
39675;DHT22;27790;50.840;4.386;2024-03-22T09:09:47;14.00;99.90
39675;DHT22;27790;50.840;4.386;2024-03-22T09:12:12;14.10;99.90
39675;DHT22;27790;50.840;4.386;2024-03-22T09:14:38;14.10;99.90
39675;DHT22;27790;50.840;4.386;2024-03-22T09:17:04;14.10;99.90
39675;DHT22;27790;50.840;4.386;2024-03-22T09:19:29;14.10;99.90
39675;DHT22;27790;50.840;4.386;2024-03-22T09:21:55;14.00;99.90
39675;DHT22;27790;50.840;4.386;2024-03-22T09:24:20;14.00;99.90
39675;DHT22;27790;50.840;4.386;2024-03-22T09:26:46;14.00;99.90
39675;DHT22;27790;50.840;4.386;2024-03-22T09:29:13;14.10;99.90
39675;DHT22;27790;50.840;4.386;2024-03-22T09:31:38;14.10;99.90
39675;DHT22;27790;50.840;4.386;2024-03-22T09:34:04;14.20;99.90
39675;DHT22;27790;50.840;4.386;2024-03-22T09:36:31;14.10;99.90
39675;DHT22;27790;50.840;4.386;2024-03-22T09:39:01;14.10;99.90
39675;DHT22;27790;50.840;4.386;2024-03-22T09:41:26;14.10;99.90
39675;DHT22;27790;50.840;4.386;2024-03-22T09:43:52;14.30;99.90
39675;DHT22;27790;50.840;4.386;2024-03-22T09:46:19;14.40;99.90
39675;DHT22;27790;50.840;4.386;2024-03-22T09:48:47;14.50;99.90
39675;DHT22;27790;50.840;4.386;2024-03-22T09:51:13;14.50;99.90
39675;DHT22;27790;50.840;4.386;2024-03-22T09:53:41;14.50;99.90
39675;DHT22;27790;50.840;4.386;2024-03-22T09:56:08;14.60;99.90
39675;DHT22;27790;50.840;4.386;2024-03-22T09:58:34;14.70;99.90
39675;DHT22;27790;50.840;4.386;2024-03-22T10:00:59;14.60;99.80
39675;DHT22;27790;50.840;4.386;2024-03-22T10:03:26;14.60;99.70
39675;DHT22;27790;50.840;4.386;2024-03-22T10:05:52;14.70;99.80
39675;DHT22;27790;50.840;4.386;2024-03-22T10:08:17;14.70;99.70
39675;DHT22;27790;50.840;4.386;2024-03-22T10:10:43;14.70;99.50
39675;DHT22;27790;50.840;4.386;2024-03-22T10:13:08;14.80;99.20
39675;DHT22;27790;50.840;4.386;2024-03-22T10:15:34;14.80;99.00
39675;DHT22;27790;50.840;4.386;2024-03-22T10:18:00;14.70;98.80
39675;DHT22;27790;50.840;4.386;2024-03-22T10:20:25;14.70;99.10
39675;DHT22;27790;50.840;4.386;2024-03-22T10:22:58;14.80;99.00
39675;DHT22;27790;50.840;4.386;2024-03-22T10:25:27;14.80;99.00
39675;DHT22;27790;50.840;4.386;2024-03-22T10:27:54;14.90;98.90
39675;DHT22;27790;50.840;4.386;2024-03-22T10:30:22;14.80;98.70
39675;DHT22;27790;50.840;4.386;2024-03-22T10:32:48;14.80;98.90
39675;DHT22;27790;50.840;4.386;2024-03-22T10:35:15;14.80;99.00
39675;DHT22;27790;50.840;4.386;2024-03-22T10:37:42;14.70;99.10
39675;DHT22;27790;50.840;4.386;2024-03-22T10:40:08;14.80;98.80
39675;DHT22;27790;50.840;4.386;2024-03-22T10:42:41;14.90;98.70
39675;DHT22;27790;50.840;4.386;2024-03-22T10:45:08;15.00;98.80
39675;DHT22;27790;50.840;4.386;2024-03-22T10:47:36;15.20;98.70
39675;DHT22;27790;50.840;4.386;2024-03-22T10:50:11;15.30;98.40
39675;DHT22;27790;50.840;4.386;2024-03-22T10:52:38;15.40;98.40
39675;DHT22;27790;50.840;4.386;2024-03-22T10:55:07;15.50;98.40
39675;DHT22;27790;50.840;4.386;2024-03-22T10:57:34;15.50;97.80
39675;DHT22;27790;50.840;4.386;2024-03-22T11:00:12;15.40;98.00
39675;DHT22;27790;50.840;4.386;2024-03-22T11:02:45;15.30;98.20
39675;DHT22;27790;50.840;4.386;2024-03-22T11:05:17;15.30;98.20
39675;DHT22;27790;50.840;4.386;2024-03-22T11:07:44;15.30;98.30
39675;DHT22;27790;50.840;4.386;2024-03-22T11:10:12;15.20;98.50
39675;DHT22;27790;50.840;4.386;2024-03-22T11:12:41;15.20;98.50
39675;DHT22;27790;50.840;4.386;2024-03-22T11:15:09;15.30;98.50
39675;DHT22;27790;50.840;4.386;2024-03-22T11:17:36;15.40;98.30
39675;DHT22;27790;50.840;4.386;2024-03-22T11:20:02;15.30;98.10
39675;DHT22;27790;50.840;4.386;2024-03-22T11:22:27;15.40;98.20
39675;DHT22;27790;50.840;4.386;2024-03-22T11:24:53;15.40;98.10
39675;DHT22;27790;50.840;4.386;2024-03-22T11:27:18;15.40;98.00
39675;DHT22;27790;50.840;4.386;2024-03-22T11:29:45;15.40;98.00
39675;DHT22;27790;50.840;4.386;2024-03-22T11:32:12;15.50;97.90
39675;DHT22;27790;50.840;4.386;2024-03-22T11:34:38;15.50;97.80
39675;DHT22;27790;50.840;4.386;2024-03-22T11:37:05;15.30;97.80
39675;DHT22;27790;50.840;4.386;2024-03-22T11:39:33;15.20;98.10
39675;DHT22;27790;50.840;4.386;2024-03-22T11:42:02;15.00;98.20
39675;DHT22;27790;50.840;4.386;2024-03-22T11:44:28;15.00;98.40
39675;DHT22;27790;50.840;4.386;2024-03-22T11:46:54;15.00;98.50
39675;DHT22;27790;50.840;4.386;2024-03-22T11:49:19;15.00;98.10
39675;DHT22;27790;50.840;4.386;2024-03-22T11:51:45;15.00;98.00
39675;DHT22;27790;50.840;4.386;2024-03-22T11:54:11;14.90;98.10
39675;DHT22;27790;50.840;4.386;2024-03-22T11:56:36;14.90;98.50
39675;DHT22;27790;50.840;4.386;2024-03-22T11:59:02;14.90;98.70
39675;DHT22;27790;50.840;4.386;2024-03-22T12:01:30;15.00;98.40
39675;DHT22;27790;50.840;4.386;2024-03-22T12:03:56;15.00;98.40
39675;DHT22;27790;50.840;4.386;2024-03-22T12:06:22;15.00;98.50
39675;DHT22;27790;50.840;4.386;2024-03-22T12:08:47;15.10;98.50
39675;DHT22;27790;50.840;4.386;2024-03-22T12:11:13;15.00;98.40
39675;DHT22;27790;50.840;4.386;2024-03-22T12:13:39;15.10;98.40
39675;DHT22;27790;50.840;4.386;2024-03-22T12:16:05;15.00;98.30
39675;DHT22;27790;50.840;4.386;2024-03-22T12:18:31;14.90;98.50
39675;DHT22;27790;50.840;4.386;2024-03-22T12:20:57;15.00;98.60
39675;DHT22;27790;50.840;4.386;2024-03-22T12:23:22;15.00;98.40
39675;DHT22;27790;50.840;4.386;2024-03-22T12:25:50;15.10;98.50
39675;DHT22;27790;50.840;4.386;2024-03-22T12:28:16;15.10;98.40
39675;DHT22;27790;50.840;4.386;2024-03-22T12:30:41;14.90;98.50
39675;DHT22;27790;50.840;4.386;2024-03-22T12:33:08;14.70;98.90
39675;DHT22;27790;50.840;4.386;2024-03-22T12:35:40;14.80;99.10
39675;DHT22;27790;50.840;4.386;2024-03-22T12:38:06;14.70;99.10
39675;DHT22;27790;50.840;4.386;2024-03-22T12:40:32;14.70;99.20
39675;DHT22;27790;50.840;4.386;2024-03-22T12:42:58;14.70;99.30
39675;DHT22;27790;50.840;4.386;2024-03-22T12:45:24;14.60;99.10
39675;DHT22;27790;50.840;4.386;2024-03-22T12:47:50;14.60;99.40
39675;DHT22;27790;50.840;4.386;2024-03-22T12:50:15;14.50;99.40
39675;DHT22;27790;50.840;4.386;2024-03-22T12:52:41;14.50;99.30
39675;DHT22;27790;50.840;4.386;2024-03-22T12:55:07;14.50;99.20
39675;DHT22;27790;50.840;4.386;2024-03-22T12:57:33;14.50;99.30
39675;DHT22;27790;50.840;4.386;2024-03-22T12:59:58;14.50;99.20
39675;DHT22;27790;50.840;4.386;2024-03-22T13:02:24;14.50;99.00
39675;DHT22;27790;50.840;4.386;2024-03-22T13:04:52;14.50;99.00
39675;DHT22;27790;50.840;4.386;2024-03-22T13:07:19;14.60;99.20
39675;DHT22;27790;50.840;4.386;2024-03-22T13:09:45;14.60;99.30
39675;DHT22;27790;50.840;4.386;2024-03-22T13:12:11;14.50;99.40
39675;DHT22;27790;50.840;4.386;2024-03-22T13:14:36;14.50;99.40
39675;DHT22;27790;50.840;4.386;2024-03-22T13:17:02;14.60;99.40
39675;DHT22;27790;50.840;4.386;2024-03-22T13:19:27;14.60;99.00
39675;DHT22;27790;50.840;4.386;2024-03-22T13:21:53;14.70;99.10
39675;DHT22;27790;50.840;4.386;2024-03-22T13:24:18;14.70;99.20
39675;DHT22;27790;50.840;4.386;2024-03-22T13:26:44;14.60;99.10
39675;DHT22;27790;50.840;4.386;2024-03-22T13:29:10;14.10;99.90
39675;DHT22;27790;50.840;4.386;2024-03-22T13:31:36;14.30;99.80
39675;DHT22;27790;50.840;4.386;2024-03-22T13:34:02;14.40;99.40
39675;DHT22;27790;50.840;4.386;2024-03-22T13:36:29;14.40;99.40
39675;DHT22;27790;50.840;4.386;2024-03-22T13:38:58;14.60;99.50
39675;DHT22;27790;50.840;4.386;2024-03-22T13:41:23;14.70;99.30
39675;DHT22;27790;50.840;4.386;2024-03-22T13:43:49;14.60;99.30
39675;DHT22;27790;50.840;4.386;2024-03-22T13:46:14;14.50;99.20
39675;DHT22;27790;50.840;4.386;2024-03-22T13:48:42;14.50;99.30
39675;DHT22;27790;50.840;4.386;2024-03-22T13:51:08;14.50;99.30
39675;DHT22;27790;50.840;4.386;2024-03-22T13:53:34;14.70;99.40
39675;DHT22;27790;50.840;4.386;2024-03-22T13:56:00;14.70;99.20
39675;DHT22;27790;50.840;4.386;2024-03-22T13:58:26;14.70;99.20
39675;DHT22;27790;50.840;4.386;2024-03-22T14:00:52;14.70;99.20
39675;DHT22;27790;50.840;4.386;2024-03-22T14:03:18;14.70;99.40
39675;DHT22;27790;50.840;4.386;2024-03-22T14:05:44;14.50;99.40
39675;DHT22;27790;50.840;4.386;2024-03-22T14:08:09;14.50;99.70
39675;DHT22;27790;50.840;4.386;2024-03-22T14:10:35;14.40;99.70
39675;DHT22;27790;50.840;4.386;2024-03-22T14:13:01;14.40;99.90
39675;DHT22;27790;50.840;4.386;2024-03-22T14:15:27;14.50;99.90
39675;DHT22;27790;50.840;4.386;2024-03-22T14:17:57;14.50;99.90
39675;DHT22;27790;50.840;4.386;2024-03-22T14:20:23;14.50;99.90
39675;DHT22;27790;50.840;4.386;2024-03-22T14:22:48;14.40;99.90
39675;DHT22;27790;50.840;4.386;2024-03-22T14:25:14;14.40;99.90
39675;DHT22;27790;50.840;4.386;2024-03-22T14:27:39;14.50;99.90
39675;DHT22;27790;50.840;4.386;2024-03-22T14:30:10;14.30;99.90
39675;DHT22;27790;50.840;4.386;2024-03-22T14:32:38;14.20;99.90
39675;DHT22;27790;50.840;4.386;2024-03-22T14:35:04;14.20;99.90
39675;DHT22;27790;50.840;4.386;2024-03-22T14:37:29;14.30;99.90
39675;DHT22;27790;50.840;4.386;2024-03-22T14:39:55;14.30;99.90
39675;DHT22;27790;50.840;4.386;2024-03-22T14:42:20;14.30;99.90
39675;DHT22;27790;50.840;4.386;2024-03-22T14:44:46;14.30;99.90
39675;DHT22;27790;50.840;4.386;2024-03-22T14:47:12;14.30;99.90
39675;DHT22;27790;50.840;4.386;2024-03-22T14:49:37;14.30;99.90
39675;DHT22;27790;50.840;4.386;2024-03-22T14:52:03;14.10;99.90
39675;DHT22;27790;50.840;4.386;2024-03-22T14:54:29;14.20;99.90
39675;DHT22;27790;50.840;4.386;2024-03-22T14:56:55;14.20;99.90
39675;DHT22;27790;50.840;4.386;2024-03-22T14:59:20;14.20;99.90
39675;DHT22;27790;50.840;4.386;2024-03-22T15:01:46;14.10;99.90
39675;DHT22;27790;50.840;4.386;2024-03-22T15:04:12;14.10;99.90
39675;DHT22;27790;50.840;4.386;2024-03-22T15:06:38;14.20;99.90
39675;DHT22;27790;50.840;4.386;2024-03-22T15:09:04;14.30;99.90
39675;DHT22;27790;50.840;4.386;2024-03-22T15:11:35;14.20;99.90
39675;DHT22;27790;50.840;4.386;2024-03-22T15:14:01;14.10;99.90
39675;DHT22;27790;50.840;4.386;2024-03-22T15:16:27;13.90;99.90
39675;DHT22;27790;50.840;4.386;2024-03-22T15:18:53;13.90;99.90
39675;DHT22;27790;50.840;4.386;2024-03-22T15:21:19;13.90;99.90
39675;DHT22;27790;50.840;4.386;2024-03-22T15:23:46;13.80;99.90